Time;durP1;ratioP1;P1;durP2;ratioP2;P2;SDS_P1;SDS_P2;PMS_P1;PMS_P2;Temp;Humidity;BMP_temperature;BMP_pressure;BME280_temperature;BME280_humidity;BME280_pressure;Samples;Min_cycle;Max_cycle;Signal;HPM_P1;HPM_P2
2023/04/20 00:01:07;;;;;;;7.53;4.93;;;15.80;72.20;;;;;;5056169;28;20629;-63
2023/04/20 00:03:56;;;;;;;5.13;4.38;;;15.70;71.70;;;;;;5055227;28;20226;-69
2023/04/20 00:06:45;;;;;;;6.35;4.90;;;15.80;72.20;;;;;;5055344;28;20290;-63
2023/04/20 00:09:33;;;;;;;3.88;3.25;;;15.80;72.30;;;;;;5054806;28;20275;-62
2023/04/20 00:12:21;;;;;;;5.73;4.03;;;15.80;71.50;;;;;;5054213;28;20296;-63
2023/04/20 00:15:09;;;;;;;4.25;3.85;;;15.80;72.20;;;;;;5055687;28;20194;-63
2023/04/20 00:17:57;;;;;;;5.37;4.60;;;15.70;72.20;;;;;;5054577;28;20224;-62
2023/04/20 00:20:47;;;;;;;5.00;4.00;;;15.70;73.00;;;;;;5055097;28;20588;-63
2023/04/20 00:23:35;;;;;;;5.43;4.50;;;15.70;71.80;;;;;;5055182;28;20243;-63
2023/04/20 00:26:23;;;;;;;4.50;4.10;;;15.70;72.60;;;;;;5054830;28;20198;-62
2023/04/20 00:29:11;;;;;;;4.53;4.13;;;15.70;72.70;;;;;;5054709;28;20201;-62
2023/04/20 00:31:59;;;;;;;5.60;4.50;;;15.60;72.20;;;;;;5054458;28;20236;-63
2023/04/20 00:34:47;;;;;;;4.53;3.80;;;15.60;72.80;;;;;;5055150;28;20285;-63
2023/04/20 00:37:36;;;;;;;4.07;3.63;;;15.60;72.60;;;;;;5055225;28;20284;-63
2023/04/20 00:40:24;;;;;;;5.00;4.50;;;15.70;72.60;;;;;;5054713;28;20289;-63
2023/04/20 00:43:13;;;;;;;4.40;4.00;;;15.70;71.70;;;;;;5054174;28;20293;-62
2023/04/20 00:46:02;;;;;;;5.05;3.75;;;15.70;72.70;;;;;;5054957;28;20283;-63
2023/04/20 00:48:52;;;;;;;4.90;3.90;;;15.70;72.50;;;;;;5054997;28;20204;-62
2023/04/20 00:51:41;;;;;;;5.77;4.13;;;15.70;73.10;;;;;;5054304;28;20229;-62
2023/04/20 00:54:32;;;;;;;6.70;4.40;;;15.60;72.50;;;;;;5054350;28;20341;-64
2023/04/20 00:57:22;;;;;;;5.20;4.23;;;15.60;72.50;;;;;;5054118;28;20699;-62
2023/04/20 01:00:11;;;;;;;4.47;3.83;;;15.60;72.50;;;;;;5054769;28;20216;-62
2023/04/20 01:02:59;;;;;;;4.95;4.45;;;15.70;71.90;;;;;;5053713;28;20315;-62
2023/04/20 01:05:47;;;;;;;6.20;4.63;;;15.70;72.50;;;;;;5054261;28;20278;-64
2023/04/20 01:08:35;;;;;;;7.00;5.00;;;15.70;72.50;;;;;;5054037;28;20201;-62
2023/04/20 01:11:25;;;;;;;8.13;4.90;;;15.50;86.80;;;;;;5053608;28;20332;-64
2023/04/20 01:14:13;;;;;;;4.90;4.00;;;15.60;72.40;;;;;;5053901;28;20295;-62
2023/04/20 01:17:03;;;;;;;4.80;3.80;;;15.60;72.40;;;;;;5053250;28;20201;-63
2023/04/20 01:19:51;;;;;;;5.05;4.50;;;15.60;72.60;;;;;;5054218;28;20701;-62
2023/04/20 01:22:48;;;;;;;5.93;4.60;;;15.60;72.00;;;;;;5053614;28;20258;-63
2023/04/20 01:25:36;;;;;;;4.63;3.73;;;15.60;72.70;;;;;;5052997;28;20301;-63
2023/04/20 01:28:25;;;;;;;4.57;4.10;;;15.60;72.80;;;;;;5054070;28;20197;-63
2023/04/20 01:31:13;;;;;;;5.37;4.43;;;15.60;72.90;;;;;;5053926;28;20229;-62
2023/04/20 01:34:02;;;;;;;3.30;3.00;;;15.60;72.40;;;;;;5053069;28;20226;-62
2023/04/20 01:36:50;;;;;;;5.38;4.47;;;15.50;73.00;;;;;;5054315;28;20198;-63
2023/04/20 01:39:40;;;;;;;5.80;4.80;;;15.60;72.90;;;;;;5048729;28;20197;-63
2023/04/20 01:42:28;;;;;;;4.47;4.07;;;15.60;72.40;;;;;;5063752;28;20220;-63
2023/04/20 01:45:16;;;;;;;4.93;4.47;;;15.60;73.00;;;;;;5074115;28;20208;-62
2023/04/20 01:48:05;;;;;;;5.33;4.23;;;15.60;73.00;;;;;;5073226;28;20277;-63
2023/04/20 01:50:53;;;;;;;4.82;4.00;;;15.60;72.90;;;;;;5072859;28;20208;-63
2023/04/20 01:53:41;;;;;;;5.37;4.87;;;15.60;72.30;;;;;;5073000;28;20659;-63
2023/04/20 01:56:31;;;;;;;4.33;3.90;;;15.60;72.70;;;;;;5072867;28;20319;-63
2023/04/20 01:59:19;;;;;;;4.13;3.72;;;15.60;72.70;;;;;;5072460;28;20779;-63
2023/04/20 02:02:07;;;;;;;7.00;4.13;;;15.60;72.10;;;;;;5073340;28;20268;-63
2023/04/20 02:04:55;;;;;;;3.73;3.30;;;15.60;72.70;;;;;;5072413;28;20270;-63
2023/04/20 02:07:43;;;;;;;3.53;3.23;;;15.60;72.70;;;;;;5072940;28;20683;-63
2023/04/20 02:10:31;;;;;;;4.45;3.70;;;15.60;72.80;;;;;;5073191;28;20204;-63
2023/04/20 02:13:20;;;;;;;5.55;4.10;;;15.60;72.20;;;;;;5073260;28;20299;-63
2023/04/20 02:16:08;;;;;;;4.23;3.80;;;15.60;72.80;;;;;;5072000;28;20671;-63
2023/04/20 02:18:56;;;;;;;5.03;4.53;;;15.60;72.90;;;;;;5072450;28;20750;-63
2023/04/20 02:21:45;;;;;;;6.35;4.45;;;15.50;72.30;;;;;;5071903;28;20307;-63
2023/04/20 02:24:33;;;;;;;5.47;4.15;;;15.50;72.90;;;;;;5073400;28;20193;-63
2023/04/20 02:27:21;;;;;;;3.83;3.40;;;15.50;72.80;;;;;;5073240;28;20279;-63
2023/04/20 02:30:11;;;;;;;4.57;4.18;;;15.50;72.90;;;;;;5073310;28;20618;-62
2023/04/20 02:33:00;;;;;;;4.03;3.60;;;15.50;72.30;;;;;;5071557;28;20224;-62
2023/04/20 02:35:48;;;;;;;5.27;4.37;;;15.50;73.00;;;;;;5072008;28;20216;-63
2023/04/20 02:38:36;;;;;;;4.73;4.07;;;15.50;72.90;;;;;;5071981;28;20232;-62
2023/04/20 02:41:24;;;;;;;3.80;3.40;;;15.20;80.60;;;;;;5071694;28;20587;-63
2023/04/20 02:44:12;;;;;;;4.67;4.27;;;15.50;73.00;;;;;;5072238;28;20692;-64
2023/04/20 02:47:02;;;;;;;6.82;4.28;;;15.50;73.00;;;;;;5072540;28;20276;-64
2023/04/20 02:49:50;;;;;;;4.93;4.43;;;15.50;73.00;;;;;;5072061;28;20200;-63
2023/04/20 02:52:38;;;;;;;5.23;4.20;;;15.50;72.40;;;;;;5072349;28;20217;-62
2023/04/20 02:55:26;;;;;;;5.20;4.70;;;15.50;72.90;;;;;;5072329;28;20251;-63
2023/04/20 02:58:16;;;;;;;5.93;4.03;;;15.60;73.00;;;;;;5071863;28;20673;-63
2023/04/20 03:01:04;;;;;;;6.60;5.20;;;15.50;72.90;;;;;;5071609;28;20427;-63
2023/04/20 03:03:54;;;;;;;6.23;4.40;;;15.50;72.40;;;;;;5071934;28;20762;-63
2023/04/20 03:06:42;;;;;;;5.40;4.55;;;15.40;72.90;;;;;;5071579;28;20258;-62
2023/04/20 03:09:30;;;;;;;5.23;3.90;;;15.50;73.00;;;;;;5071454;28;20277;-63
2023/04/20 03:12:18;;;;;;;5.72;4.95;;;15.50;73.00;;;;;;5071191;28;20224;-62
2023/04/20 03:15:08;;;;;;;4.45;3.95;;;15.50;73.00;;;;;;5072397;28;20255;-63
2023/04/20 03:17:56;;;;;;;4.63;3.93;;;15.40;72.90;;;;;;5071869;28;20224;-63
2023/04/20 03:20:45;;;;;;;5.93;4.20;;;15.40;72.90;;;;;;5071305;28;20611;-63
2023/04/20 03:23:33;;;;;;;5.40;4.90;;;15.40;72.40;;;;;;5070858;28;20307;-63
2023/04/20 03:26:22;;;;;;;6.43;4.63;;;15.40;73.00;;;;;;5071718;28;20282;-62
2023/04/20 03:29:10;;;;;;;6.03;4.47;;;15.40;73.10;;;;;;5072185;28;20223;-63
2023/04/20 03:31:58;;;;;;;4.97;4.47;;;15.40;72.60;;;;;;5071418;28;20317;-63
2023/04/20 03:34:46;;;;;;;4.27;3.87;;;15.40;73.10;;;;;;5071346;28;20305;-63
2023/04/20 03:37:36;;;;;;;7.20;5.33;;;15.40;72.90;;;;;;5070932;28;20205;-63
2023/04/20 03:40:25;;;;;;;5.55;4.47;;;15.40;72.80;;;;;;5070992;28;20715;-63
2023/04/20 03:43:13;;;;;;;6.57;5.35;;;15.50;72.30;;;;;;5070739;28;20705;-62
2023/04/20 03:46:01;;;;;;;4.72;4.15;;;15.50;73.10;;;;;;5072147;28;20276;-63
2023/04/20 03:48:49;;;;;;;5.80;4.65;;;15.50;73.10;;;;;;5071397;28;20200;-63
2023/04/20 03:51:37;;;;;;;5.27;4.20;;;15.30;87.60;;;;;;5071775;28;20216;-62
2023/04/20 03:54:27;;;;;;;5.47;4.57;;;15.40;72.80;;;;;;5072211;28;20322;-62
2023/04/20 03:57:15;;;;;;;5.77;5.20;;;15.40;72.90;;;;;;5072213;28;20701;-63
2023/04/20 04:00:03;;;;;;;7.28;5.63;;;15.50;73.00;;;;;;5070879;28;20228;-63
2023/04/20 04:02:51;;;;;;;7.60;5.90;;;15.40;72.30;;;;;;5104011;22;20292;-63
2023/04/20 04:05:40;;;;;;;4.47;4.07;;;15.40;72.90;;;;;;5092290;28;20242;-63
2023/04/20 04:08:28;;;;;;;5.75;4.35;;;15.40;73.10;;;;;;5090772;28;20196;-63
2023/04/20 04:11:18;;;;;;;5.30;4.80;;;15.40;73.20;;;;;;5092854;28;20224;-63
2023/04/20 04:14:06;;;;;;;5.00;4.37;;;15.40;73.30;;;;;;5072170;28;20276;-62
2023/04/20 04:16:54;;;;;;;7.53;5.50;;;15.40;73.30;;;;;;5071061;28;20354;-63
2023/04/20 04:19:43;;;;;;;8.63;5.45;;;15.40;73.20;;;;;;5071564;28;20197;-62
2023/04/20 04:22:31;;;;;;;7.78;5.53;;;15.40;73.20;;;;;;5070470;28;20221;-63
2023/04/20 04:25:22;;;;;;;5.53;4.83;;;15.40;73.10;;;;;;5070885;28;20215;-63
2023/04/20 04:28:11;;;;;;;5.60;4.57;;;15.40;73.10;;;;;;5070853;28;20618;-63
2023/04/20 04:31:04;;;;;;;6.18;4.80;;;15.40;73.20;;;;;;5071347;28;20673;-63
2023/04/20 04:33:52;;;;;;;6.87;6.17;;;15.40;73.10;;;;;;5071203;28;20217;-63
2023/04/20 04:36:40;;;;;;;6.30;5.05;;;15.40;73.20;;;;;;5071996;28;20273;-63
2023/04/20 04:39:29;;;;;;;7.23;5.60;;;15.40;73.20;;;;;;5072929;28;20286;-63
2023/04/20 04:42:17;;;;;;;6.97;5.20;;;15.40;73.20;;;;;;5073372;28;20256;-63
2023/04/20 04:45:09;;;;;;;5.57;4.60;;;15.40;73.20;;;;;;5074097;28;20201;-63
2023/04/20 04:47:57;;;;;;;6.67;5.20;;;15.40;73.20;;;;;;5074610;28;20334;-63
2023/04/20 04:50:46;;;;;;;7.57;6.77;;;15.40;73.10;;;;;;5074113;28;20741;-63
2023/04/20 04:53:34;;;;;;;7.67;5.60;;;15.40;73.10;;;;;;5074464;28;21079;-63
2023/04/20 04:56:22;;;;;;;8.30;6.13;;;14.90;72.60;;;;;;5075439;28;20696;-63
2023/04/20 04:59:10;;;;;;;7.60;6.03;;;15.40;73.10;;;;;;5073805;28;20339;-63
2023/04/20 05:01:59;;;;;;;7.50;5.20;;;15.50;87.70;;;;;;5073497;28;20234;-63
2023/04/20 05:04:48;;;;;;;6.73;5.93;;;15.40;73.30;;;;;;5073652;28;20203;-63
2023/04/20 05:07:37;;;;;;;7.03;4.80;;;15.40;73.20;;;;;;5073555;28;20552;-63
2023/04/20 05:10:25;;;;;;;8.37;6.47;;;15.30;73.10;;;;;;5073611;28;20204;-63
2023/04/20 05:13:13;;;;;;;7.83;6.60;;;15.30;73.20;;;;;;5072996;28;20221;-63
2023/04/20 05:16:01;;;;;;;9.10;7.27;;;15.40;73.10;;;;;;5073430;28;20529;-63
2023/04/20 05:18:50;;;;;;;9.20;7.30;;;15.40;73.10;;;;;;5073426;28;20197;-63
2023/04/20 05:21:38;;;;;;;11.07;7.60;;;15.40;73.10;;;;;;5073096;28;20346;-63
2023/04/20 05:24:26;;;;;;;8.37;6.27;;;15.30;72.30;;;;;;5073142;28;20782;-63
2023/04/20 05:27:14;;;;;;;10.00;6.87;;;15.30;72.90;;;;;;5073637;28;20944;-63
2023/04/20 05:30:03;;;;;;;11.73;8.30;;;15.30;73.00;;;;;;5074519;28;20262;-63
2023/04/20 05:33:07;;;;;;;9.10;6.90;;;15.30;73.10;;;;;;5074305;28;20220;-63
2023/04/20 05:35:57;;;;;;;9.00;6.67;;;15.40;73.10;;;;;;5070647;28;20358;-63
2023/04/20 05:38:46;;;;;;;7.80;6.30;;;15.30;73.10;;;;;;5082420;28;20333;-63
2023/04/20 05:41:34;;;;;;;9.23;6.93;;;15.30;72.90;;;;;;5073633;28;20604;-63
2023/04/20 05:44:22;;;;;;;12.50;9.48;;;15.30;72.90;;;;;;5073071;28;20193;-63
2023/04/20 05:47:10;;;;;;;12.00;8.97;;;15.40;73.00;;;;;;5073885;28;20279;-63
2023/04/20 05:49:59;;;;;;;12.80;8.37;;;15.40;73.00;;;;;;5073136;28;20205;-63
2023/04/20 05:52:48;;;;;;;13.03;9.70;;;15.40;73.10;;;;;;5073507;28;20612;-63
2023/04/20 05:55:36;;;;;;;10.63;7.80;;;15.30;73.00;;;;;;5073141;28;20299;-63
2023/04/20 05:58:26;;;;;;;23.87;7.63;;;15.30;73.10;;;;;;5073866;28;20789;-63
2023/04/20 06:01:14;;;;;;;12.17;8.77;;;15.30;73.00;;;;;;5070160;28;20225;-63
2023/04/20 06:04:02;;;;;;;11.83;8.23;;;15.30;73.10;;;;;;5070003;28;20264;-63
2023/04/20 06:06:50;;;;;;;14.25;8.27;;;15.30;73.10;;;;;;5062301;28;20196;-63
2023/04/20 06:09:40;;;;;;;11.60;7.63;;;15.40;73.30;;;;;;5072811;28;20205;-64
2023/04/20 06:12:28;;;;;;;10.30;8.10;;;15.30;73.20;;;;;;5073395;28;20839;-63
2023/04/20 06:15:17;;;;;;;8.20;6.53;;;15.30;73.30;;;;;;5073312;28;20204;-64
2023/04/20 06:18:05;;;;;;;10.27;7.78;;;15.30;73.30;;;;;;5072632;28;20197;-63
2023/04/20 06:20:53;;;;;;;10.53;7.27;;;15.40;74.20;;;;;;5073234;28;20196;-64
2023/04/20 06:23:42;;;;;;;12.63;8.90;;;15.40;73.40;;;;;;5072099;28;20224;-64
2023/04/20 06:26:31;;;;;;;14.30;8.63;;;15.40;73.20;;;;;;5073289;28;20200;-63
2023/04/20 06:29:19;;;;;;;10.63;7.97;;;15.40;73.30;;;;;;5072434;28;20284;-64
2023/04/20 06:32:08;;;;;;;12.63;8.70;;;15.40;73.40;;;;;;5072508;28;20255;-64
2023/04/20 06:34:56;;;;;;;7.70;5.97;;;15.40;73.50;;;;;;5073546;28;20291;-63
2023/04/20 06:37:44;;;;;;;7.77;5.50;;;15.50;73.60;;;;;;5070628;28;20220;-64
2023/04/20 06:40:32;;;;;;;9.80;5.20;;;15.80;73.20;;;;;;5073290;28;20679;-64
2023/04/20 06:43:21;;;;;;;5.93;5.10;;;16.40;72.30;;;;;;5072239;28;20220;-64
2023/04/20 06:46:10;;;;;;;7.13;4.97;;;18.40;72.70;;;;;;5072778;28;20272;-64
2023/04/20 06:48:58;;;;;;;5.63;5.03;;;17.30;70.50;;;;;;5071518;28;20664;-64
2023/04/20 06:51:47;;;;;;;7.18;5.22;;;18.10;75.20;;;;;;5072290;28;20208;-65
2023/04/20 06:54:35;;;;;;;8.68;5.25;;;18.00;68.70;;;;;;5089340;28;20200;-64
2023/04/20 06:57:23;;;;;;;8.57;6.55;;;18.30;68.00;;;;;;5077749;28;20213;-65
2023/04/20 07:00:13;;;;;;;8.27;5.20;;;18.60;67.30;;;;;;5071322;28;20803;-63
2023/04/20 07:03:02;;;;;;;5.70;4.57;;;19.00;66.00;;;;;;5071844;28;20232;-65
2023/04/20 07:05:50;;;;;;;8.75;5.50;;;19.20;66.50;;;;;;5072837;28;20201;-65
2023/04/20 07:08:39;;;;;;;13.52;5.97;;;19.40;65.80;;;;;;5072373;28;20193;-65
2023/04/20 07:11:27;;;;;;;10.77;6.13;;;19.60;65.20;;;;;;5071890;28;20228;-65
2023/04/20 07:14:15;;;;;;;6.85;5.80;;;19.90;64.00;;;;;;5070189;28;20211;-65
2023/04/20 07:17:05;;;;;;;6.47;5.75;;;20.10;64.20;;;;;;5070358;28;20294;-65
2023/04/20 07:19:53;;;;;;;5.82;4.45;;;20.40;63.60;;;;;;5072978;28;20717;-65
2023/04/20 07:22:41;;;;;;;7.95;5.72;;;20.60;63.40;;;;;;5073192;28;20212;-65
2023/04/20 07:25:30;;;;;;;6.70;5.63;;;20.70;62.90;;;;;;5080046;28;20280;-65
2023/04/20 07:28:18;;;;;;;6.70;5.65;;;20.90;62.70;;;;;;5083447;28;20193;-65
2023/04/20 07:31:06;;;;;;;12.05;6.75;;;21.00;62.20;;;;;;5078598;28;20274;-66
2023/04/20 07:33:56;;;;;;;5.60;4.57;;;21.10;61.80;;;;;;5081724;28;20297;-65
2023/04/20 07:36:44;;;;;;;8.23;4.57;;;21.20;61.70;;;;;;5079835;28;20208;-65
2023/04/20 07:39:32;;;;;;;7.18;5.30;;;21.40;61.50;;;;;;5076415;28;20196;-65
2023/04/20 07:42:20;;;;;;;5.85;4.97;;;21.50;61.40;;;;;;5081782;28;20240;-66
2023/04/20 07:45:10;;;;;;;8.95;5.20;;;21.60;61.20;;;;;;5082926;28;20204;-65
2023/04/20 07:48:00;;;;;;;5.45;4.57;;;21.50;61.10;;;;;;5078107;28;20273;-65
2023/04/20 07:50:49;;;;;;;5.22;4.72;;;21.60;61.10;;;;;;5081532;28;20580;-66
2023/04/20 07:53:37;;;;;;;5.95;4.90;;;21.60;60.80;;;;;;5081051;28;20704;-65
2023/04/20 07:56:26;;;;;;;5.15;4.65;;;21.70;60.80;;;;;;5076742;28;20239;-64
2023/04/20 07:59:14;;;;;;;6.22;5.38;;;21.90;60.70;;;;;;5080043;28;20294;-64
2023/04/20 08:02:03;;;;;;;6.43;4.82;;;22.00;59.80;;;;;;5077189;28;20239;-65
2023/04/20 08:04:51;;;;;;;6.45;5.15;;;22.00;60.40;;;;;;5077508;28;20201;-64
2023/04/20 08:07:41;;;;;;;6.03;4.18;;;22.10;60.30;;;;;;5080478;28;20275;-65
2023/04/20 08:10:29;;;;;;;5.55;4.82;;;22.20;60.10;;;;;;5072582;28;20708;-65
2023/04/20 08:13:17;;;;;;;6.50;5.90;;;22.30;59.90;;;;;;5083267;28;20304;-65
2023/04/20 08:16:06;;;;;;;5.68;4.93;;;22.30;59.70;;;;;;5090001;28;20274;-65
2023/04/20 08:18:54;;;;;;;5.28;4.78;;;22.30;59.60;;;;;;5074347;28;20262;-65
2023/04/20 08:21:42;;;;;;;7.78;4.30;;;22.20;70.70;;;;;;5074202;28;20197;-65
2023/04/20 08:24:32;;;;;;;6.90;4.72;;;22.40;59.60;;;;;;5074474;28;20678;-65
2023/04/20 08:27:20;;;;;;;9.57;5.38;;;22.40;59.50;;;;;;5084031;28;20266;-65
2023/04/20 08:30:08;;;;;;;7.85;4.68;;;22.50;59.60;;;;;;5084021;28;20204;-65
2023/04/20 08:32:57;;;;;;;5.88;5.18;;;22.40;58.90;;;;;;5054970;28;20221;-65
2023/04/20 08:35:46;;;;;;;5.20;4.57;;;22.40;59.50;;;;;;5055609;28;20204;-66
2023/04/20 08:38:34;;;;;;;11.13;6.68;;;22.40;59.30;;;;;;5075031;28;20216;-65
2023/04/20 08:41:25;;;;;;;4.90;4.10;;;22.50;59.50;;;;;;5075337;28;20227;-65
2023/04/20 08:44:13;;;;;;;4.90;4.40;;;22.40;58.90;;;;;;5075165;28;20200;-65
2023/04/20 08:47:03;;;;;;;5.03;4.53;;;22.50;59.50;;;;;;5074946;28;20203;-65
2023/04/20 08:49:54;;;;;;;5.47;4.57;;;22.50;60.00;;;;;;5074224;28;20205;-65
2023/04/20 08:52:42;;;;;;;4.30;3.90;;;22.50;58.80;;;;;;5074666;28;20614;-66
2023/04/20 08:55:30;;;;;;;6.03;3.88;;;22.40;59.30;;;;;;5075344;28;20258;-66
2023/04/20 08:58:20;;;;;;;4.43;4.03;;;22.40;59.40;;;;;;5074144;28;20343;-65
2023/04/20 09:01:09;;;;;;;6.78;4.93;;;22.40;59.40;;;;;;5074355;28;20205;-65
2023/04/20 09:03:57;;;;;;;4.65;4.20;;;22.40;58.80;;;;;;5056208;28;20257;-65
2023/04/20 09:06:46;;;;;;;5.35;4.68;;;22.40;59.30;;;;;;5056181;28;20953;-65
2023/04/20 09:09:34;;;;;;;4.78;4.22;;;22.50;59.40;;;;;;5059268;28;20204;-65
2023/04/20 09:12:23;;;;;;;4.70;4.30;;;22.50;58.80;;;;;;5073552;28;20697;-66
2023/04/20 09:15:25;;;;;;;4.78;4.32;;;22.60;59.40;;;;;;5079720;28;20200;-66
2023/04/20 09:18:14;;;;;;;4.45;3.88;;;22.50;59.90;;;;;;5078095;28;20251;-65
2023/04/20 09:21:08;;;;;;;5.70;4.40;;;22.60;59.30;;;;;;5081693;28;20221;-65
2023/04/20 09:23:57;;;;;;;4.88;3.80;;;22.60;58.70;;;;;;5092014;28;20654;-65
2023/04/20 09:26:46;;;;;;;7.75;4.90;;;22.70;59.30;;;;;;5089778;28;20247;-65
2023/04/20 09:29:34;;;;;;;5.20;3.95;;;22.60;59.00;;;;;;5098996;28;20200;-66
2023/04/20 09:32:24;;;;;;;4.88;4.03;;;22.70;58.60;;;;;;5100316;28;20223;-65
2023/04/20 09:35:12;;;;;;;6.50;4.40;;;22.70;59.10;;;;;;5101210;28;20203;-65
2023/04/20 09:38:00;;;;;;;4.60;4.18;;;22.70;59.00;;;;;;5078859;28;20232;-65
2023/04/20 09:40:50;;;;;;;5.82;5.03;;;22.70;59.10;;;;;;5078421;28;20192;-65
2023/04/20 09:43:40;;;;;;;6.10;4.40;;;22.70;58.70;;;;;;5079778;28;20648;-65
2023/04/20 09:46:31;;;;;;;4.22;3.83;;;22.70;59.30;;;;;;5081032;28;20276;-66
2023/04/20 09:49:21;;;;;;;4.30;3.63;;;22.60;59.30;;;;;;5081823;28;20782;-65
2023/04/20 09:52:09;;;;;;;7.03;3.78;;;22.60;59.20;;;;;;5083251;28;20227;-65
2023/04/20 09:54:57;;;;;;;6.53;4.68;;;22.50;59.50;;;;;;5081691;28;20744;-64
2023/04/20 09:57:46;;;;;;;5.63;3.83;;;22.60;59.90;;;;;;5079924;28;20277;-65
2023/04/20 10:00:34;;;;;;;4.43;4.00;;;22.40;59.70;;;;;;5090239;28;20200;-64
2023/04/20 10:03:22;;;;;;;5.13;3.90;;;22.40;59.50;;;;;;5092629;28;20309;-66
2023/04/20 10:06:20;;;;;;;6.22;4.50;;;22.30;60.10;;;;;;5073146;28;20212;-66
2023/04/20 10:09:09;;;;;;;9.68;4.70;;;22.40;60.40;;;;;;5072998;28;20208;-66
2023/04/20 10:12:06;;;;;;;4.20;3.60;;;22.20;70.80;;;;;;5080742;28;20689;-66
2023/04/20 10:14:55;;;;;;;5.28;4.80;;;22.40;60.20;;;;;;5084037;28;20249;-63
2023/04/20 10:17:44;;;;;;;7.25;4.43;;;22.50;60.10;;;;;;5082075;28;20207;-65
2023/04/20 10:20:33;;;;;;;4.72;4.32;;;22.70;59.90;;;;;;5090435;28;20202;-65
2023/04/20 10:23:22;;;;;;;3.97;3.58;;;22.80;59.10;;;;;;5092667;28;20322;-66
2023/04/20 10:26:10;;;;;;;4.20;3.80;;;22.90;59.50;;;;;;5092947;28;20192;-67
2023/04/20 10:28:58;;;;;;;5.28;3.70;;;23.00;59.30;;;;;;5092747;28;20680;-66
2023/04/20 10:31:46;;;;;;;4.22;3.83;;;23.00;63.00;;;;;;5072891;28;20274;-66
2023/04/20 10:34:36;;;;;;;6.93;5.03;;;23.10;59.20;;;;;;5073449;28;20274;-66
2023/04/20 10:37:25;;;;;;;4.65;4.10;;;23.20;59.30;;;;;;5071803;28;20294;-67
2023/04/20 10:40:14;;;;;;;5.50;4.32;;;23.20;59.20;;;;;;5072933;28;20209;-66
2023/04/20 10:43:03;;;;;;;6.85;4.82;;;23.20;58.60;;;;;;5071710;28;20282;-66
2023/04/20 10:45:51;;;;;;;6.28;4.97;;;23.30;59.20;;;;;;5072172;28;20237;-66
2023/04/20 10:48:48;;;;;;;7.53;6.35;;;23.30;59.10;;;;;;5073075;28;20193;-66
2023/04/20 10:51:36;;;;;;;9.48;7.93;;;23.30;59.20;;;;;;5072638;28;20196;-65
2023/04/20 10:54:25;;;;;;;5.40;4.80;;;23.30;58.70;;;;;;5081101;28;20237;-66
2023/04/20 10:57:17;;;;;;;6.00;5.38;;;23.20;59.10;;;;;;5077908;28;20665;-66
2023/04/20 11:00:15;;;;;;;6.40;4.40;;;23.20;59.20;;;;;;5080010;28;20302;-66
2023/04/20 11:03:03;;;;;;;4.72;4.30;;;23.20;58.70;;;;;;5079369;28;20232;-63
2023/04/20 11:05:52;;;;;;;5.50;4.38;;;23.20;59.40;;;;;;5080205;28;20591;-64
2023/04/20 11:08:42;;;;;;;5.28;4.78;;;23.10;59.20;;;;;;5072987;28;20203;-66
2023/04/20 11:11:30;;;;;;;8.50;5.00;;;23.00;59.10;;;;;;5073346;28;20668;-64
2023/04/20 11:14:20;;;;;;;5.80;4.90;;;23.00;58.60;;;;;;5073389;28;20636;-65
2023/04/20 11:17:08;;;;;;;7.25;4.72;;;22.90;59.20;;;;;;5073326;28;20288;-64
2023/04/20 11:20:05;;;;;;;4.68;4.18;;;22.90;59.40;;;;;;5071360;28;20208;-64
2023/04/20 11:22:57;;;;;;;5.05;4.57;;;22.80;59.00;;;;;;5072674;28;20227;-64
2023/04/20 11:25:50;;;;;;;5.05;3.80;;;22.90;59.70;;;;;;5071649;28;20279;-63
2023/04/20 11:28:38;;;;;;;5.53;5.00;;;22.90;59.70;;;;;;5074024;28;20199;-64
2023/04/20 11:31:27;;;;;;;5.63;4.05;;;22.90;59.70;;;;;;5071355;28;20253;-65
2023/04/20 11:34:17;;;;;;;6.30;4.43;;;23.00;59.10;;;;;;5068752;28;20288;-65
2023/04/20 11:37:06;;;;;;;4.60;4.20;;;23.10;59.70;;;;;;5072967;28;20254;-65
2023/04/20 11:40:03;;;;;;;6.00;4.55;;;23.20;59.50;;;;;;5071247;28;20220;-65
2023/04/20 11:42:51;;;;;;;5.50;4.07;;;23.30;58.80;;;;;;5077484;28;20243;-65
2023/04/20 11:45:40;;;;;;;6.70;4.07;;;23.30;60.00;;;;;;5092068;28;20800;-66
2023/04/20 11:48:31;;;;;;;12.75;4.80;;;23.50;59.30;;;;;;5074397;28;20728;-66
2023/04/20 11:51:20;;;;;;;5.05;4.15;;;23.40;59.20;;;;;;5075156;28;20208;-65
2023/04/20 11:54:08;;;;;;;5.57;5.00;;;23.50;58.60;;;;;;5087781;28;20746;-65
2023/04/20 11:56:57;;;;;;;4.65;4.07;;;23.50;59.10;;;;;;5080905;28;20196;-65
2023/04/20 11:59:47;;;;;;;4.63;4.13;;;23.50;59.10;;;;;;5094247;28;20307;-65
2023/04/20 12:02:35;;;;;;;6.20;5.00;;;23.50;58.50;;;;;;5094408;28;20228;-65
2023/04/20 12:05:25;;;;;;;7.55;5.30;;;23.50;59.10;;;;;;5056019;28;20577;-65
2023/04/20 12:08:16;;;;;;;4.55;4.07;;;23.50;59.00;;;;;;5054927;28;20232;-65
2023/04/20 12:11:04;;;;;;;7.53;4.78;;;23.40;58.90;;;;;;5056775;28;20280;-65
2023/04/20 12:13:53;;;;;;;3.47;3.17;;;23.30;58.50;;;;;;5054548;28;20229;-65
2023/04/20 12:16:41;;;;;;;4.47;4.05;;;23.30;59.20;;;;;;5055889;28;20758;-64
2023/04/20 12:19:29;;;;;;;7.40;3.75;;;23.20;59.10;;;;;;5060419;28;20216;-65
2023/04/20 12:22:19;;;;;;;6.43;4.30;;;23.20;59.00;;;;;;5074840;28;20299;-65
2023/04/20 12:25:08;;;;;;;4.95;4.18;;;23.20;59.50;;;;;;5074697;28;20200;-65
2023/04/20 12:27:56;;;;;;;4.70;3.85;;;23.20;59.60;;;;;;5075361;28;20197;-65
2023/04/20 12:30:44;;;;;;;4.75;3.80;;;23.40;59.80;;;;;;5074694;28;20682;-64
2023/04/20 12:33:32;;;;;;;5.40;4.75;;;23.40;59.20;;;;;;5074534;28;20220;-65
2023/04/20 12:36:20;;;;;;;4.80;3.63;;;23.40;59.70;;;;;;5074721;28;20231;-65
2023/04/20 12:39:10;;;;;;;4.95;4.47;;;23.50;59.70;;;;;;5073932;28;20220;-65
2023/04/20 12:41:58;;;;;;;4.85;4.20;;;23.80;70.00;;;;;;5074677;28;20674;-65
2023/04/20 12:44:47;;;;;;;5.43;3.88;;;23.70;59.70;;;;;;5074452;28;20228;-65
2023/04/20 12:47:35;;;;;;;4.55;4.15;;;23.70;59.40;;;;;;5075145;28;20196;-64
2023/04/20 12:50:23;;;;;;;5.18;4.68;;;23.80;59.50;;;;;;5083820;28;20201;-65
2023/04/20 12:53:11;;;;;;;5.22;4.25;;;24.00;58.90;;;;;;5083887;28;20220;-64
2023/04/20 12:56:01;;;;;;;8.93;4.60;;;24.00;59.20;;;;;;5083791;28;20223;-65
2023/04/20 12:58:49;;;;;;;4.75;4.15;;;24.00;59.20;;;;;;5080969;28;20550;-65
2023/04/20 13:01:37;;;;;;;4.68;4.28;;;24.10;59.30;;;;;;5083871;28;20228;-64
2023/04/20 13:04:25;;;;;;;6.70;4.35;;;24.10;58.70;;;;;;5095161;28;20239;-65
2023/04/20 13:07:13;;;;;;;4.82;4.03;;;24.10;59.20;;;;;;5095182;28;20211;-67
2023/04/20 13:10:02;;;;;;;4.55;4.10;;;24.10;59.10;;;;;;5100069;28;20210;-65
2023/04/20 13:12:51;;;;;;;7.18;4.28;;;24.10;58.90;;;;;;5100461;28;20224;-65
2023/04/20 13:15:40;;;;;;;5.60;3.92;;;24.00;59.10;;;;;;5087387;28;20193;-66
2023/04/20 13:18:28;;;;;;;7.03;4.38;;;24.00;59.40;;;;;;5084617;28;20277;-66
2023/04/20 13:21:16;;;;;;;5.38;4.72;;;24.00;59.40;;;;;;5082006;28;20296;-63
2023/04/20 13:24:04;;;;;;;4.22;3.83;;;24.00;58.80;;;;;;5080718;28;20291;-65
2023/04/20 13:26:56;;;;;;;6.45;4.47;;;23.90;60.00;;;;;;5084632;28;20204;-67
2023/04/20 13:29:45;;;;;;;6.80;4.82;;;23.70;60.20;;;;;;5084638;28;20197;-66
2023/04/20 13:32:34;;;;;;;5.15;4.65;;;23.60;60.50;;;;;;5082960;28;20211;-66
2023/04/20 13:35:25;;;;;;;7.38;4.65;;;23.60;61.20;;;;;;5082325;28;20665;-65
2023/04/20 13:38:14;;;;;;;4.95;4.45;;;23.50;60.80;;;;;;5082891;28;20192;-66
2023/04/20 13:41:03;;;;;;;4.70;4.28;;;23.40;61.20;;;;;;5082457;28;20262;-66
2023/04/20 13:43:51;;;;;;;5.10;4.20;;;23.40;60.70;;;;;;5085349;28;20623;-66
2023/04/20 13:46:40;;;;;;;6.25;5.47;;;23.20;61.50;;;;;;5082079;28;20200;-65
2023/04/20 13:49:28;;;;;;;4.50;4.10;;;23.20;61.30;;;;;;5082611;28;20193;-65
2023/04/20 13:52:17;;;;;;;6.38;5.30;;;23.00;60.80;;;;;;5084565;28;20353;-65
2023/04/20 13:55:06;;;;;;;5.97;5.07;;;23.00;61.90;;;;;;5079993;28;20199;-65
2023/04/20 13:57:54;;;;;;;5.05;4.55;;;22.90;61.60;;;;;;5084794;28;20200;-66
2023/04/20 14:00:42;;;;;;;4.82;4.43;;;22.90;61.70;;;;;;5081160;28;20216;-65
2023/04/20 14:03:32;;;;;;;9.18;5.32;;;22.70;61.80;;;;;;5081899;28;20236;-65
2023/04/20 14:06:20;;;;;;;5.07;4.60;;;22.70;62.10;;;;;;5079743;28;20192;-65
2023/04/20 14:09:08;;;;;;;6.95;4.03;;;22.60;62.60;;;;;;5087824;28;20227;-65
2023/04/20 14:11:57;;;;;;;6.47;5.45;;;22.70;75.10;;;;;;5090705;28;20211;-66
2023/04/20 14:14:45;;;;;;;4.32;3.92;;;22.50;63.70;;;;;;5082215;28;20254;-65
2023/04/20 14:17:33;;;;;;;4.20;3.80;;;22.50;62.90;;;;;;5053157;28;20193;-65
2023/04/20 14:20:22;;;;;;;5.22;4.60;;;22.50;61.90;;;;;;5052548;28;20299;-65
2023/04/20 14:23:11;;;;;;;3.90;3.60;;;22.40;61.90;;;;;;5051898;28;20372;-65
2023/04/20 14:25:59;;;;;;;5.20;4.70;;;22.40;62.70;;;;;;5064794;28;20236;-64
2023/04/20 14:28:48;;;;;;;5.30;3.95;;;22.30;64.10;;;;;;5072002;28;20284;-64
2023/04/20 14:31:36;;;;;;;5.25;4.78;;;22.30;63.50;;;;;;5076425;28;20672;-65
2023/04/20 14:34:24;;;;;;;5.70;4.75;;;22.20;63.70;;;;;;5080209;28;20204;-65
2023/04/20 14:37:14;;;;;;;4.85;4.38;;;22.10;66.00;;;;;;5082329;28;20211;-66